createdAt,value
2023-02-07T00:01:52.362Z,54.70
2023-02-07T00:04:22.118Z,54.90
2023-02-07T00:06:50.461Z,55.20
2023-02-07T00:09:18.825Z,55.70
2023-02-07T00:11:47.584Z,55.70
2023-02-07T00:14:15.983Z,55.60
2023-02-07T00:16:44.529Z,55.70
2023-02-07T00:19:13.013Z,56.20
2023-02-07T00:21:42.690Z,56.20
2023-02-07T00:24:11.019Z,56.30
2023-02-07T00:26:39.898Z,56.30
2023-02-07T00:29:08.243Z,56.40
2023-02-07T00:31:37.416Z,56.50
2023-02-07T00:34:08.425Z,56.20
2023-02-07T00:36:37.443Z,55.70
2023-02-07T00:39:09.532Z,55.50
2023-02-07T00:41:37.853Z,55.60
2023-02-07T00:44:07.038Z,55.80
2023-02-07T00:46:36.242Z,56.20
2023-02-07T00:49:05.229Z,56.20
2023-02-07T00:51:34.388Z,55.90
2023-02-07T00:54:03.157Z,55.80
2023-02-07T00:56:33.853Z,55.60
2023-02-07T00:59:02.298Z,55.40
2023-02-07T01:01:30.671Z,55.30
2023-02-07T01:03:59.567Z,54.90
2023-02-07T01:06:29.607Z,55.20
2023-02-07T01:08:59.335Z,55.30
2023-02-07T01:11:27.804Z,54.80
2023-02-07T01:13:59.496Z,54.80
2023-02-07T01:16:29.868Z,54.70
2023-02-07T01:18:59.110Z,54.60
2023-02-07T01:21:28.550Z,54.60
2023-02-07T01:23:57.226Z,54.60
2023-02-07T01:26:26.386Z,54.20
2023-02-07T01:28:56.855Z,54.20
2023-02-07T01:31:25.615Z,54.30
2023-02-07T01:33:58.181Z,54.20
2023-02-07T01:36:27.380Z,54.20
2023-02-07T01:38:56.368Z,54.20
2023-02-07T01:41:25.970Z,53.90
2023-02-07T01:44:26.789Z,53.60
2023-02-07T01:46:57.907Z,53.70
2023-02-07T01:49:30.608Z,53.70
2023-02-07T01:52:04.422Z,53.80
2023-02-07T01:54:33.952Z,54.00
2023-02-07T01:57:06.440Z,54.00
2023-02-07T01:59:38.846Z,53.90
2023-02-07T02:02:08.647Z,54.20
2023-02-07T02:04:37.002Z,54.70
2023-02-07T02:07:07.071Z,55.10
2023-02-07T02:09:35.689Z,55.10
2023-02-07T02:12:35.795Z,54.20
2023-02-07T02:15:15.949Z,53.90
2023-02-07T02:17:57.259Z,53.80
2023-02-07T02:20:59.923Z,53.50
2023-02-07T02:23:41.477Z,53.60
2023-02-07T02:26:44.304Z,53.90
2023-02-07T02:29:43.602Z,54.40
2023-02-07T02:32:55.957Z,54.50
2023-02-07T02:35:33.911Z,54.40
2023-02-07T02:38:11.731Z,55.00
2023-02-07T02:40:47.796Z,54.70
2023-02-07T02:43:24.068Z,54.40
2023-02-07T02:45:57.647Z,54.50
2023-02-07T02:48:28.831Z,54.60
2023-02-07T02:50:58.025Z,54.60
2023-02-07T02:53:26.830Z,54.70
2023-02-07T02:56:18.245Z,54.70
2023-02-07T02:59:08.850Z,54.80
2023-02-07T03:01:50.294Z,54.70
2023-02-07T03:04:33.939Z,54.50
2023-02-07T03:07:14.443Z,54.30
2023-02-07T03:09:54.897Z,54.30
2023-02-07T03:12:28.542Z,54.30
2023-02-07T03:15:04.387Z,54.40
2023-02-07T03:17:38.839Z,54.30
2023-02-07T03:20:15.931Z,54.10
2023-02-07T03:22:46.405Z,54.30
2023-02-07T03:25:17.067Z,54.60
2023-02-07T03:27:47.731Z,54.80
2023-02-07T03:30:20.182Z,55.00
2023-02-07T03:32:52.815Z,54.80
2023-02-07T03:35:27.698Z,55.10
2023-02-07T03:37:59.804Z,54.80
2023-02-07T03:40:30.360Z,54.80
2023-02-07T03:43:05.255Z,55.10
2023-02-07T03:45:34.270Z,55.30
2023-02-07T03:48:02.808Z,55.30
2023-02-07T03:50:32.886Z,55.80
2023-02-07T03:53:01.584Z,56.20
2023-02-07T03:55:30.244Z,56.40
2023-02-07T03:57:58.875Z,56.70
2023-02-07T04:00:27.744Z,56.10
2023-02-07T04:02:56.392Z,56.50
2023-02-07T04:05:25.126Z,57.00
2023-02-07T04:07:55.257Z,57.10
2023-02-07T04:10:24.089Z,57.60
2023-02-07T04:12:52.832Z,57.80
2023-02-07T04:15:21.855Z,57.90
2023-02-07T04:17:50.538Z,58.10
2023-02-07T04:20:19.503Z,58.40
2023-02-07T04:22:47.833Z,58.40
2023-02-07T04:25:18.771Z,58.70
2023-02-07T04:27:47.109Z,58.80
2023-02-07T04:30:15.742Z,59.00
2023-02-07T04:32:44.307Z,59.20
2023-02-07T04:35:12.770Z,59.20
2023-02-07T04:37:41.529Z,59.40
2023-02-07T04:40:10.876Z,59.50
2023-02-07T04:42:40.661Z,59.50
2023-02-07T04:45:09.792Z,59.60
2023-02-07T04:47:38.188Z,59.80
2023-02-07T04:50:07.658Z,59.80
2023-02-07T04:52:35.983Z,59.90
2023-02-07T04:55:04.768Z,60.00
2023-02-07T04:57:33.056Z,60.20
2023-02-07T05:00:03.642Z,60.60
2023-02-07T05:02:31.993Z,60.60
2023-02-07T05:05:00.378Z,60.50
2023-02-07T05:07:28.808Z,60.60
2023-02-07T05:09:57.222Z,60.70
2023-02-07T05:12:25.616Z,60.80
2023-02-07T05:14:53.945Z,61.00
2023-02-07T05:17:23.704Z,61.10
2023-02-07T05:19:52.008Z,61.20
2023-02-07T05:22:20.369Z,61.50
2023-02-07T05:24:48.664Z,61.70
2023-02-07T05:27:16.978Z,61.80
2023-02-07T05:29:45.338Z,61.80
2023-02-07T05:32:32.201Z,61.80
2023-02-07T05:35:02.215Z,61.70
2023-02-07T05:37:30.501Z,61.50
2023-02-07T05:39:58.852Z,61.40
2023-02-07T05:42:27.321Z,61.20
2023-02-07T05:44:55.742Z,61.00
2023-02-07T05:47:24.066Z,61.00
2023-02-07T05:49:52.457Z,60.90
2023-02-07T05:52:22.136Z,60.80
2023-02-07T05:54:50.518Z,60.60
2023-02-07T05:57:18.964Z,60.70
2023-02-07T05:59:47.477Z,60.60
2023-02-07T06:02:16.044Z,60.60
2023-02-07T06:04:44.546Z,60.70
2023-02-07T06:07:12.962Z,60.40
2023-02-07T06:09:42.838Z,60.20
2023-02-07T06:12:11.164Z,60.20
2023-02-07T06:14:39.843Z,60.10
2023-02-07T06:17:08.192Z,60.20
2023-02-07T06:19:36.579Z,60.60
2023-02-07T06:22:05.212Z,60.30
2023-02-07T06:24:33.583Z,60.10
2023-02-07T06:27:03.394Z,60.10
2023-02-07T06:29:31.734Z,59.90
2023-02-07T06:32:00.652Z,59.90
2023-02-07T06:34:29.124Z,59.70
2023-02-07T06:36:57.389Z,59.40
2023-02-07T06:39:25.882Z,58.90
2023-02-07T06:41:54.180Z,58.50
2023-02-07T06:44:23.943Z,58.50
2023-02-07T06:46:52.339Z,58.80
2023-02-07T06:49:20.732Z,59.00
2023-02-07T06:51:49.087Z,59.30
2023-02-07T06:54:17.471Z,59.10
2023-02-07T06:56:45.789Z,59.10
2023-02-07T06:59:14.446Z,59.20
2023-02-07T07:01:44.205Z,59.40
2023-02-07T07:04:12.908Z,59.30
2023-02-07T07:06:41.530Z,59.00
2023-02-07T07:09:09.938Z,58.80
2023-02-07T07:11:42.921Z,58.60
2023-02-07T07:14:11.920Z,58.80
2023-02-07T07:16:41.905Z,58.90
2023-02-07T07:19:12.313Z,58.50
2023-02-07T07:21:40.708Z,58.00
2023-02-07T07:24:09.406Z,58.10
2023-02-07T07:26:48.772Z,58.30
2023-02-07T07:29:18.765Z,58.30
2023-02-07T07:31:47.435Z,58.50
2023-02-07T07:34:17.353Z,58.20
2023-02-07T07:36:45.846Z,58.10
2023-02-07T07:39:14.747Z,58.20
2023-02-07T07:41:42.998Z,58.30
2023-02-07T07:44:11.333Z,58.80
2023-02-07T07:46:39.660Z,59.10
2023-02-07T07:49:08.734Z,59.00
2023-02-07T07:51:38.585Z,59.00
2023-02-07T07:54:06.893Z,59.10
2023-02-07T07:56:35.562Z,59.20
2023-02-07T07:59:05.996Z,59.50
2023-02-07T08:01:37.313Z,59.20
2023-02-07T08:04:05.937Z,59.20
2023-02-07T08:06:34.313Z,58.90
2023-02-07T08:09:04.175Z,58.70
2023-02-07T08:11:32.653Z,58.80
2023-02-07T08:14:01.102Z,58.80
2023-02-07T08:16:29.532Z,58.70
2023-02-07T08:18:57.791Z,58.80
2023-02-07T08:21:26.912Z,58.50
2023-02-07T08:23:55.284Z,58.60
2023-02-07T08:26:25.373Z,58.80
2023-02-07T08:28:53.830Z,59.30
2023-02-07T08:31:22.259Z,59.30
2023-02-07T08:33:51.942Z,58.50
2023-02-07T08:36:20.271Z,58.90
2023-02-07T08:38:48.696Z,59.40
2023-02-07T08:41:17.210Z,59.70
2023-02-07T08:43:47.066Z,60.00
2023-02-07T08:46:15.780Z,59.90
2023-02-07T08:48:44.188Z,59.80
2023-02-07T08:51:12.956Z,59.60
2023-02-07T08:53:41.251Z,59.30
2023-02-07T08:56:10.342Z,59.30
2023-02-07T08:58:40.092Z,59.50
2023-02-07T09:01:11.642Z,59.30
2023-02-07T09:03:40.316Z,59.60
2023-02-07T09:06:10.737Z,59.70
2023-02-07T09:08:39.063Z,59.60
2023-02-07T09:11:10.489Z,59.10
2023-02-07T09:13:38.897Z,59.00
2023-02-07T09:16:07.659Z,59.00
2023-02-07T09:18:37.410Z,59.20
2023-02-07T09:21:06.160Z,59.10
2023-02-07T09:23:35.915Z,58.60
2023-02-07T09:26:06.237Z,58.40
2023-02-07T09:28:35.894Z,58.40
2023-02-07T09:31:09.884Z,58.40
2023-02-07T09:33:40.249Z,58.20
2023-02-07T09:36:20.134Z,58.40
2023-02-07T09:38:48.737Z,58.40
2023-02-07T09:41:23.620Z,57.80
2023-02-07T09:44:05.211Z,58.00
2023-02-07T09:46:38.403Z,58.20
2023-02-07T09:49:14.048Z,57.80
2023-02-07T09:51:43.949Z,56.80
2023-02-07T09:54:19.511Z,56.30
2023-02-07T09:56:49.731Z,56.50
2023-02-07T09:59:26.101Z,57.10
2023-02-07T10:01:59.084Z,57.60
2023-02-07T10:04:36.499Z,57.40
2023-02-07T10:07:08.800Z,57.20
2023-02-07T10:09:40.963Z,57.00
2023-02-07T10:12:31.027Z,56.60
2023-02-07T10:15:21.065Z,55.90
2023-02-07T10:18:06.830Z,55.60
2023-02-07T10:20:41.221Z,54.50
2023-02-07T10:23:21.968Z,53.90
2023-02-07T10:26:01.277Z,54.00
2023-02-07T10:28:50.870Z,54.00
2023-02-07T10:31:20.106Z,54.30
2023-02-07T10:33:56.219Z,54.60
2023-02-07T10:36:29.749Z,54.00
2023-02-07T10:39:09.403Z,54.00
2023-02-07T10:41:39.725Z,54.00
2023-02-07T10:44:11.331Z,53.60
2023-02-07T10:46:41.795Z,53.40
2023-02-07T10:56:19.793Z,53.10
2023-02-07T10:58:48.447Z,53.20
2023-02-07T11:01:22.145Z,53.20
2023-02-07T11:03:52.797Z,53.20
2023-02-07T11:06:27.506Z,53.20
2023-02-07T11:09:21.183Z,53.40
2023-02-07T11:11:51.194Z,53.70
2023-02-07T11:14:26.646Z,53.70
2023-02-07T11:16:56.389Z,53.40
2023-02-07T11:19:27.010Z,53.60
2023-02-07T11:22:19.060Z,53.60
2023-02-07T11:24:50.173Z,53.40
2023-02-07T11:27:21.739Z,52.80
2023-02-07T11:29:56.431Z,52.90
2023-02-07T11:32:26.450Z,53.00
2023-02-07T11:34:57.404Z,52.40
2023-02-07T11:37:29.160Z,52.50
2023-02-07T11:40:21.741Z,52.70
2023-02-07T11:42:51.425Z,53.30
2023-02-07T11:45:23.612Z,53.20
2023-02-07T11:47:55.349Z,53.10
2023-02-07T11:50:35.877Z,53.50
2023-02-07T11:53:04.846Z,53.60
2023-02-07T11:55:37.147Z,53.30
2023-02-07T11:58:11.464Z,53.30
2023-02-07T12:00:40.812Z,53.50
2023-02-07T12:03:25.484Z,53.70
2023-02-07T12:05:56.881Z,53.60
2023-02-07T12:08:28.604Z,53.50
2023-02-07T12:11:02.060Z,53.40
2023-02-07T12:13:35.296Z,53.60
2023-02-07T12:16:08.635Z,53.50
2023-02-07T12:18:41.476Z,53.50
2023-02-07T12:21:19.916Z,53.50
2023-02-07T12:23:53.655Z,53.80
2023-02-07T12:26:28.123Z,54.10
2023-02-07T12:29:13.792Z,54.30
2023-02-07T12:31:52.082Z,54.30
2023-02-07T12:34:28.924Z,54.30
2023-02-07T12:37:02.410Z,53.80
2023-02-07T12:39:37.705Z,53.50
2023-02-07T12:42:31.847Z,53.10
2023-02-07T12:45:03.075Z,52.80
2023-02-07T12:47:44.013Z,52.40
2023-02-07T12:50:23.991Z,52.00
2023-02-07T12:53:05.591Z,51.60
2023-02-07T12:55:46.907Z,51.00
2023-02-07T12:58:37.047Z,51.10
2023-02-07T13:01:10.622Z,51.00
2023-02-07T13:03:56.207Z,50.90
2023-02-07T13:06:33.343Z,51.00
2023-02-07T13:09:07.455Z,51.10
2023-02-07T13:11:42.497Z,50.80
2023-02-07T13:14:25.624Z,50.30
2023-02-07T13:17:17.085Z,50.20
2023-02-07T13:19:55.011Z,50.50
2023-02-07T13:22:32.925Z,50.00
2023-02-07T13:25:03.055Z,49.70
2023-02-07T13:27:32.735Z,49.50
2023-02-07T13:30:02.819Z,49.30
2023-02-07T13:32:32.886Z,49.10
2023-02-07T13:35:06.282Z,48.80
2023-02-07T13:37:43.841Z,48.70
2023-02-07T13:40:29.529Z,48.80
2023-02-07T13:43:05.754Z,49.10
2023-02-07T13:45:48.328Z,49.00
2023-02-07T13:48:25.848Z,49.00
2023-02-07T13:51:03.469Z,49.00
2023-02-07T13:53:49.970Z,48.90
2023-02-07T13:56:36.524Z,48.90
2023-02-07T13:59:22.371Z,48.80
2023-02-07T14:01:56.057Z,48.90
2023-02-07T14:04:24.961Z,48.00
2023-02-07T14:07:05.543Z,47.90
2023-02-07T14:09:36.840Z,48.00
2023-02-07T14:12:08.006Z,48.00
2023-02-07T14:14:40.414Z,48.00
2023-02-07T14:17:14.685Z,47.80
2023-02-07T14:20:00.364Z,47.80
2023-02-07T14:22:31.300Z,47.60
2023-02-07T14:25:24.154Z,47.40
2023-02-07T14:28:31.883Z,47.00
2023-02-07T14:31:23.061Z,47.30
2023-02-07T14:34:14.731Z,47.40
2023-02-07T14:36:43.632Z,47.70
2023-02-07T14:39:31.045Z,47.20
2023-02-07T14:42:12.466Z,46.70
2023-02-07T14:44:43.281Z,46.40
2023-02-07T14:47:22.764Z,46.00
2023-02-07T14:49:55.759Z,45.80
2023-02-07T14:52:27.224Z,45.80
2023-02-07T14:55:00.005Z,45.80
2023-02-07T14:57:37.779Z,45.70
2023-02-07T15:00:31.739Z,45.90
2023-02-07T15:03:05.373Z,45.90
2023-02-07T15:05:36.830Z,45.60
2023-02-07T15:08:16.704Z,45.50
2023-02-07T15:10:52.780Z,45.50
2023-02-07T15:13:26.987Z,45.30
2023-02-07T15:15:57.821Z,45.20
2023-02-07T15:18:30.957Z,45.00
2023-02-07T15:21:01.385Z,44.70
2023-02-07T15:23:33.490Z,44.20
2023-02-07T15:26:06.411Z,43.90
2023-02-07T15:28:35.261Z,43.60
2023-02-07T15:31:06.270Z,43.20
2023-02-07T15:33:40.315Z,42.90
2023-02-07T15:36:30.122Z,42.70
2023-02-07T15:38:59.410Z,42.80
2023-02-07T15:41:28.722Z,43.20
2023-02-07T15:44:01.618Z,43.10
2023-02-07T15:46:46.353Z,43.10
2023-02-07T15:49:27.453Z,43.40
2023-02-07T15:52:02.562Z,44.00
2023-02-07T15:54:32.076Z,43.70
2023-02-07T15:57:01.618Z,43.70
2023-02-07T15:59:32.340Z,43.80
2023-02-07T16:02:03.165Z,44.50
2023-02-07T16:04:33.449Z,44.00
2023-02-07T16:07:06.295Z,44.00
2023-02-07T16:09:40.255Z,44.30
2023-02-07T16:12:33.628Z,44.10
2023-02-07T16:15:03.582Z,43.90
2023-02-07T16:17:42.052Z,43.70
2023-02-07T16:20:15.584Z,43.60
2023-02-07T16:22:46.298Z,43.60
2023-02-07T16:25:18.771Z,43.60
2023-02-07T16:27:50.060Z,43.40
2023-02-07T16:30:21.883Z,43.50
2023-02-07T16:32:50.570Z,43.90
2023-02-07T16:35:22.358Z,43.80
2023-02-07T16:37:52.595Z,43.50
2023-02-07T16:40:23.394Z,42.90
2023-02-07T16:42:54.055Z,43.00
2023-02-07T16:45:26.591Z,42.90
2023-02-07T16:47:55.487Z,43.40
2023-02-07T16:50:25.801Z,43.70
2023-02-07T16:52:57.662Z,43.80
2023-02-07T16:55:28.003Z,43.70
2023-02-07T16:57:58.075Z,43.10
2023-02-07T17:00:28.248Z,42.90
2023-02-07T17:02:56.984Z,42.70
2023-02-07T17:05:25.727Z,42.90
2023-02-07T17:07:55.431Z,42.90
2023-02-07T17:10:27.544Z,43.20
2023-02-07T17:12:56.099Z,43.30
2023-02-07T17:15:25.193Z,43.10
2023-02-07T17:17:54.060Z,42.70
2023-02-07T17:20:26.083Z,42.50
2023-02-07T17:22:55.971Z,42.00
2023-02-07T17:25:26.901Z,41.90
2023-02-07T17:27:55.310Z,41.90
2023-02-07T17:30:26.825Z,42.00
2023-02-07T17:32:56.977Z,42.00
2023-02-07T17:35:25.734Z,41.50
2023-02-07T17:37:55.400Z,41.50
2023-02-07T17:40:29.008Z,41.80
2023-02-07T17:42:57.424Z,42.10
2023-02-07T17:45:27.523Z,42.10
2023-02-07T17:47:57.654Z,42.10
2023-02-07T17:50:29.418Z,42.20
2023-02-07T17:53:01.586Z,42.50
2023-02-07T17:55:30.990Z,42.90
2023-02-07T17:57:59.812Z,43.10
2023-02-07T18:00:30.724Z,43.70
2023-02-07T18:02:59.098Z,44.20
2023-02-07T18:05:27.596Z,44.20
2023-02-07T18:07:56.168Z,44.20
2023-02-07T18:10:28.760Z,44.10
2023-02-07T18:12:59.499Z,44.10
2023-02-07T18:15:28.605Z,44.10
2023-02-07T18:17:57.275Z,43.90
2023-02-07T18:20:27.888Z,43.90
2023-02-07T18:22:58.002Z,44.00
2023-02-07T18:25:29.895Z,44.00
2023-02-07T18:27:59.362Z,44.00
2023-02-07T18:30:28.938Z,44.30
2023-02-07T18:32:57.688Z,44.50
2023-02-07T18:35:26.487Z,44.60
2023-02-07T18:37:54.943Z,44.80
2023-02-07T18:40:26.761Z,44.80
2023-02-07T18:42:56.884Z,45.10
2023-02-07T18:45:28.525Z,45.40
2023-02-07T18:47:57.322Z,45.40
2023-02-07T18:50:26.761Z,45.00
2023-02-07T18:52:55.147Z,44.90
2023-02-07T18:55:23.890Z,44.80
2023-02-07T18:57:56.059Z,44.30
2023-02-07T19:00:26.659Z,44.10
2023-02-07T19:02:55.157Z,44.20
2023-02-07T19:05:24.436Z,44.50
2023-02-07T19:07:53.246Z,44.80
2023-02-07T19:10:23.219Z,45.00
2023-02-07T19:12:51.665Z,45.20
2023-02-07T19:15:22.255Z,44.80
2023-02-07T19:17:52.216Z,44.90
2023-02-07T19:20:21.924Z,45.00
2023-02-07T19:22:53.070Z,44.70
2023-02-07T19:25:22.104Z,44.60
2023-02-07T19:27:50.520Z,44.40
2023-02-07T19:30:19.192Z,44.80
2023-02-07T19:32:47.497Z,45.40
2023-02-07T19:35:17.633Z,45.40
2023-02-07T19:37:46.285Z,45.80
2023-02-07T19:40:14.811Z,46.40
2023-02-07T19:42:45.692Z,46.90
2023-02-07T19:45:14.164Z,47.10
2023-02-07T19:47:42.617Z,46.80
2023-02-07T19:50:11.116Z,46.90
2023-02-07T19:52:40.952Z,47.30
2023-02-07T19:55:09.802Z,47.30
2023-02-07T19:57:38.281Z,46.90
2023-02-07T20:00:08.569Z,46.80
2023-02-07T20:02:37.038Z,46.90
2023-02-07T20:05:06.671Z,47.00
2023-02-07T20:07:35.122Z,47.00
2023-02-07T20:10:06.084Z,47.00
2023-02-07T20:12:34.964Z,46.80
2023-02-07T20:15:04.339Z,46.80
2023-02-07T20:17:32.723Z,46.90
2023-02-07T20:20:01.560Z,47.00
2023-02-07T20:22:30.125Z,47.10
2023-02-07T20:24:59.823Z,47.00
2023-02-07T20:27:30.239Z,46.90
2023-02-07T20:29:58.894Z,46.40
2023-02-07T20:32:27.771Z,46.20
2023-02-07T20:34:56.390Z,45.70
2023-02-07T20:37:24.961Z,45.10
2023-02-07T20:39:53.664Z,45.00
2023-02-07T20:42:22.293Z,45.10
2023-02-07T20:44:52.486Z,45.10
2023-02-07T20:47:20.893Z,45.40
2023-02-07T20:49:49.951Z,46.10
2023-02-07T20:52:18.335Z,46.20
2023-02-07T20:54:48.248Z,46.60
2023-02-07T20:57:16.862Z,46.90
2023-02-07T20:59:45.668Z,47.00
2023-02-07T21:02:15.932Z,47.30
2023-02-07T21:04:44.792Z,47.40
2023-02-07T21:07:13.384Z,47.80
2023-02-07T21:09:42.272Z,48.40
2023-02-07T21:12:10.815Z,48.40
2023-02-07T21:14:41.217Z,47.80
2023-02-07T21:17:11.978Z,47.50
2023-02-07T21:19:42.109Z,47.10
2023-02-07T21:22:11.546Z,46.30
2023-02-07T21:24:42.337Z,46.90
2023-02-07T21:27:11.884Z,47.70
2023-02-07T21:29:40.908Z,47.70
2023-02-07T21:32:09.508Z,47.80
2023-02-07T21:34:38.489Z,47.80
2023-02-07T21:37:08.425Z,47.80
2023-02-07T21:39:36.955Z,47.70
2023-02-07T21:42:05.631Z,47.40
2023-02-07T21:44:34.068Z,47.00
2023-02-07T21:47:02.433Z,46.80
2023-02-07T21:49:30.848Z,46.60
2023-02-07T21:52:00.916Z,46.80
2023-02-07T21:54:30.691Z,46.90
2023-02-07T21:56:59.040Z,46.90
2023-02-07T21:59:27.857Z,47.20
2023-02-07T22:01:58.160Z,46.40
2023-02-07T22:04:26.482Z,46.30
2023-02-07T22:06:54.878Z,46.40
2023-02-07T22:09:23.793Z,46.00
2023-02-07T22:11:54.794Z,45.40
2023-02-07T22:14:24.875Z,44.90
2023-02-07T22:16:53.976Z,44.90
2023-02-07T22:19:23.095Z,44.90
2023-02-07T22:21:51.726Z,44.50
2023-02-07T22:24:20.979Z,44.40
2023-02-07T22:26:49.431Z,44.10
2023-02-07T22:29:19.145Z,44.20
2023-02-07T22:31:47.506Z,43.70
2023-02-07T22:34:16.104Z,43.20
2023-02-07T22:36:45.985Z,43.00
2023-02-07T22:39:16.100Z,43.00
2023-02-07T22:41:44.899Z,42.90
2023-02-07T22:44:13.502Z,42.70
2023-02-07T22:46:43.562Z,42.90
2023-02-07T22:49:12.014Z,43.10
2023-02-07T22:51:40.302Z,43.40
2023-02-07T22:54:13.684Z,44.00
2023-02-07T22:56:42.025Z,43.60
2023-02-07T22:59:10.292Z,43.90
2023-02-07T23:01:40.481Z,44.30
2023-02-07T23:04:13.966Z,44.70
2023-02-07T23:06:42.368Z,45.00
2023-02-07T23:09:11.316Z,45.10
2023-02-07T23:11:40.045Z,45.40
2023-02-07T23:14:09.218Z,45.00
2023-02-07T23:16:39.453Z,45.30
2023-02-07T23:19:13.431Z,45.30
2023-02-07T23:21:41.835Z,45.70
2023-02-07T23:24:10.682Z,45.80
2023-02-07T23:26:39.105Z,46.00
2023-02-07T23:29:07.847Z,45.90
2023-02-07T23:31:36.365Z,46.00
2023-02-07T23:34:04.786Z,46.00
2023-02-07T23:36:34.615Z,46.00
2023-02-07T23:39:03.032Z,45.70
2023-02-07T23:41:31.714Z,45.50
2023-02-07T23:44:00.540Z,45.50
2023-02-07T23:46:30.704Z,45.50
2023-02-07T23:48:59.170Z,45.60
2023-02-07T23:51:27.565Z,46.50
2023-02-07T23:53:57.347Z,46.50
2023-02-07T23:56:25.956Z,46.90
2023-02-07T23:58:54.566Z,47.70
